createdAt,value
2018-10-11T00:00:07.057Z,10.71
2018-10-11T00:02:35.022Z,10.71
2018-10-11T00:05:02.973Z,10.71
2018-10-11T00:07:30.875Z,10.68
2018-10-11T00:09:58.756Z,10.72
2018-10-11T00:12:26.763Z,10.74
2018-10-11T00:14:58.291Z,10.75
2018-10-11T00:17:26.166Z,10.74
2018-10-11T00:19:54.135Z,10.74
2018-10-11T00:22:22.180Z,10.74
2018-10-11T00:24:50.320Z,10.74
2018-10-11T00:27:18.262Z,10.53
2018-10-11T00:29:46.143Z,10.45
2018-10-11T00:32:14.124Z,10.34
2018-10-11T00:34:42.014Z,10.13
2018-10-11T00:37:09.955Z,10.08
2018-10-11T00:39:38.083Z,9.88
2018-10-11T00:42:06.016Z,9.53
2018-10-11T00:44:33.964Z,9.50
2018-10-11T00:47:08.031Z,9.46
2018-10-11T00:49:36.078Z,9.26
2018-10-11T00:52:04.018Z,9.21
2018-10-11T00:54:32.111Z,9.10
2018-10-11T00:57:00.273Z,9.05
2018-10-11T00:59:28.182Z,9.16
2018-10-11T01:01:56.233Z,9.29
2018-10-11T01:04:24.159Z,9.40
2018-10-11T01:06:52.013Z,9.49
2018-10-11T01:09:20.015Z,9.58
2018-10-11T01:11:47.859Z,9.65
2018-10-11T01:14:26.081Z,9.67
2018-10-11T01:16:54.135Z,9.67
2018-10-11T01:19:22.017Z,9.68
2018-10-11T01:21:49.914Z,9.70
2018-10-11T01:24:17.844Z,9.73
2018-10-11T01:26:46.073Z,9.77
2018-10-11T01:29:14.110Z,9.80
2018-10-11T01:31:42.064Z,9.78
2018-10-11T01:34:09.933Z,9.78
2018-10-11T01:36:38.174Z,9.77
2018-10-11T01:39:06.708Z,9.81
2018-10-11T01:41:34.795Z,9.82
2018-10-11T01:44:02.820Z,9.80
2018-10-11T01:46:30.781Z,9.81
2018-10-11T01:48:58.843Z,9.82
2018-10-11T01:51:26.970Z,9.81
2018-10-11T01:54:00.492Z,9.78
2018-10-11T01:56:28.900Z,9.74
2018-10-11T01:58:56.798Z,9.73
2018-10-11T02:01:24.679Z,9.69
2018-10-11T02:03:52.600Z,9.69
2018-10-11T02:06:20.526Z,9.70
2018-10-11T02:08:48.388Z,9.70
2018-10-11T02:11:16.432Z,9.66
2018-10-11T02:13:44.388Z,9.67
2018-10-11T02:16:12.408Z,9.65
2018-10-11T02:18:40.298Z,9.62
2018-10-11T02:21:08.219Z,9.62
2018-10-11T02:23:36.157Z,9.60
2018-10-11T02:26:04.166Z,9.39
2018-10-11T02:28:32.079Z,9.32
2018-10-11T02:30:59.952Z,9.30
2018-10-11T02:33:33.813Z,9.24
2018-10-11T02:36:02.213Z,9.18
2018-10-11T02:38:30.107Z,9.08
2018-10-11T02:40:58.039Z,8.84
2018-10-11T02:43:25.923Z,8.58
2018-10-11T02:45:53.824Z,8.67
2018-10-11T02:48:21.679Z,8.80
2018-10-11T02:50:49.900Z,8.79
2018-10-11T02:53:19.278Z,8.85
2018-10-11T02:55:47.292Z,8.85
2018-10-11T02:58:32.952Z,8.90
2018-10-11T03:01:00.822Z,8.95
2018-10-11T03:03:33.926Z,8.97
2018-10-11T03:06:01.932Z,8.81
2018-10-11T03:08:29.834Z,8.64
2018-10-11T03:10:58.090Z,8.66
2018-10-11T03:13:25.945Z,8.75
2018-10-11T03:15:53.779Z,8.62
2018-10-11T03:18:22.004Z,8.48
2018-10-11T03:20:49.858Z,8.55
2018-10-11T03:23:17.947Z,8.62
2018-10-11T03:25:46.097Z,8.64
2018-10-11T03:28:15.186Z,8.72
2018-10-11T03:30:43.359Z,8.84
2018-10-11T03:33:12.142Z,8.92
2018-10-11T03:35:40.928Z,8.93
2018-10-11T03:38:08.894Z,9.03
2018-10-11T03:40:36.739Z,9.10
2018-10-11T03:43:04.707Z,9.17
2018-10-11T03:45:36.010Z,9.22
2018-10-11T03:48:15.053Z,9.28
2018-10-11T03:50:43.235Z,9.33
2018-10-11T03:53:11.638Z,9.35
2018-10-11T03:55:39.642Z,9.39
2018-10-11T03:58:07.574Z,9.50
2018-10-11T04:00:35.519Z,9.47
2018-10-11T04:03:03.374Z,9.49
2018-10-11T04:05:31.194Z,9.52
2018-10-11T04:07:59.151Z,9.51
2018-10-11T04:10:26.971Z,9.46
2018-10-11T04:12:54.927Z,9.34
2018-10-11T04:15:22.968Z,9.33
2018-10-11T04:17:55.368Z,9.35
2018-10-11T04:20:23.171Z,9.37
2018-10-11T04:22:51.003Z,9.33
2018-10-11T04:25:21.762Z,9.29
2018-10-11T04:27:49.567Z,9.15
2018-10-11T04:30:17.363Z,9.12
2018-10-11T04:32:45.239Z,9.16
2018-10-11T04:35:13.022Z,9.17
2018-10-11T04:37:40.811Z,9.20
2018-10-11T04:40:08.615Z,9.21
2018-10-11T04:42:36.433Z,9.18
2018-10-11T04:45:04.389Z,9.15
2018-10-11T04:47:32.180Z,9.14
2018-10-11T04:49:59.983Z,9.16
2018-10-11T04:52:27.809Z,9.07
2018-10-11T04:54:55.595Z,8.99
2018-10-11T04:57:27.429Z,8.77
2018-10-11T04:59:57.627Z,8.51
2018-10-11T05:02:25.420Z,8.48
2018-10-11T05:04:53.252Z,8.56
2018-10-11T05:07:21.067Z,8.57
2018-10-11T05:09:48.919Z,8.54
2018-10-11T05:12:17.072Z,8.57
2018-10-11T05:14:45.136Z,8.66
2018-10-11T05:17:13.179Z,8.74
2018-10-11T05:19:41.034Z,8.80
2018-10-11T05:22:08.943Z,8.94
2018-10-11T05:24:36.764Z,8.96
2018-10-11T05:27:04.987Z,9.08
2018-10-11T05:29:32.807Z,9.13
2018-10-11T05:32:00.924Z,9.17
2018-10-11T05:34:28.819Z,9.19
2018-10-11T05:36:56.699Z,9.25
2018-10-11T05:39:24.705Z,9.28
2018-10-11T05:41:52.670Z,9.30
2018-10-11T05:44:20.534Z,9.35
2018-10-11T05:46:48.468Z,9.34
2018-10-11T05:49:16.580Z,9.31
2018-10-11T05:51:44.484Z,9.28
2018-10-11T05:54:12.463Z,9.26
2018-10-11T05:56:41.878Z,9.24
2018-10-11T05:59:10.303Z,9.24
2018-10-11T06:01:38.219Z,9.36
2018-10-11T06:04:08.435Z,9.44
2018-10-11T06:06:36.339Z,9.52
2018-10-11T06:09:06.555Z,9.59
2018-10-11T06:11:34.416Z,9.67
2018-10-11T06:14:02.384Z,9.73
2018-10-11T06:16:30.250Z,9.76
2018-10-11T06:18:58.140Z,9.96
2018-10-11T06:21:25.972Z,10.12
2018-10-11T06:23:54.100Z,10.26
2018-10-11T06:26:21.936Z,10.34
2018-10-11T06:28:49.784Z,10.44
2018-10-11T06:31:18.099Z,10.53
2018-10-11T06:33:46.219Z,10.66
2018-10-11T06:36:14.619Z,10.77
2018-10-11T06:38:42.495Z,10.91
2018-10-11T06:41:10.463Z,11.05
2018-10-11T06:43:39.012Z,11.22
2018-10-11T06:46:07.032Z,11.38
2018-10-11T06:48:35.397Z,11.60
2018-10-11T06:51:03.292Z,11.83
2018-10-11T06:53:31.473Z,12.07
2018-10-11T06:55:59.544Z,12.32
2018-10-11T06:58:27.308Z,12.59
2018-10-11T07:00:55.143Z,12.66
2018-10-11T07:03:23.028Z,12.88
2018-10-11T07:05:50.866Z,12.99
2018-10-11T07:08:18.658Z,13.22
2018-10-11T07:10:46.617Z,13.30
2018-10-11T07:13:14.418Z,13.69
2018-10-11T07:15:42.228Z,14.02
2018-10-11T07:18:10.017Z,14.43
2018-10-11T07:20:37.932Z,14.88
2018-10-11T07:23:05.773Z,15.18
2018-10-11T07:25:33.607Z,15.54
2018-10-11T07:28:01.661Z,15.94
2018-10-11T07:30:29.514Z,16.37
2018-10-11T07:32:57.339Z,16.75
2018-10-11T07:35:25.282Z,16.85
2018-10-11T07:37:53.078Z,17.08
2018-10-11T07:40:20.970Z,17.40
2018-10-11T07:42:48.703Z,18.03
2018-10-11T07:45:16.551Z,17.78
2018-10-11T07:47:44.409Z,17.87
2018-10-11T07:50:12.282Z,17.86
2018-10-11T07:52:40.167Z,17.80
2018-10-11T07:55:08.032Z,17.74
2018-10-11T07:57:35.888Z,17.81
2018-10-11T08:00:04.200Z,17.71
2018-10-11T08:02:32.132Z,17.64
2018-10-11T08:04:59.985Z,17.46
2018-10-11T08:07:27.885Z,17.41
2018-10-11T08:09:55.659Z,17.07
2018-10-11T08:12:23.431Z,17.00
2018-10-11T08:14:51.265Z,17.09
2018-10-11T08:17:19.400Z,17.02
2018-10-11T08:19:47.009Z,17.14
2018-10-11T08:22:14.849Z,17.38
2018-10-11T08:24:42.871Z,17.58
2018-10-11T08:27:10.852Z,17.69
2018-10-11T08:29:38.748Z,17.99
2018-10-11T08:32:07.020Z,17.77
2018-10-11T08:34:34.757Z,17.54
2018-10-11T08:37:02.544Z,17.46
2018-10-11T08:39:30.347Z,17.65
2018-10-11T08:41:58.135Z,17.62
2018-10-11T08:44:25.905Z,17.85
2018-10-11T08:46:53.726Z,17.68
2018-10-11T08:49:21.620Z,17.84
2018-10-11T08:51:49.564Z,17.99
2018-10-11T08:54:23.223Z,17.68
2018-10-11T08:56:51.181Z,17.67
2018-10-11T08:59:19.025Z,17.60
2018-10-11T09:01:46.863Z,16.92
2018-10-11T09:04:14.809Z,17.00
2018-10-11T09:06:42.551Z,16.52
2018-10-11T09:09:10.475Z,16.44
2018-10-11T09:11:38.450Z,16.17
2018-10-11T09:14:06.626Z,16.28
2018-10-11T09:16:34.594Z,16.40
2018-10-11T09:19:02.489Z,16.56
2018-10-11T09:21:30.663Z,16.40
2018-10-11T09:23:58.506Z,16.44
2018-10-11T09:26:26.315Z,16.44
2018-10-11T09:28:54.155Z,16.51
2018-10-11T09:31:22.195Z,16.62
2018-10-11T09:33:50.049Z,16.95
2018-10-11T09:36:18.050Z,17.00
2018-10-11T09:38:45.807Z,16.98
2018-10-11T09:41:13.655Z,16.74
2018-10-11T09:43:41.677Z,16.94
2018-10-11T09:46:09.520Z,17.16
2018-10-11T09:48:37.455Z,17.19
2018-10-11T09:51:05.383Z,17.41
2018-10-11T09:53:33.344Z,17.64
2018-10-11T09:56:01.456Z,17.37
2018-10-11T09:58:29.030Z,17.24
2018-10-11T10:01:02.588Z,17.13
2018-10-11T10:03:30.551Z,16.98
2018-10-11T10:05:58.427Z,16.61
2018-10-11T10:08:26.307Z,16.64
2018-10-11T10:10:54.091Z,16.66
2018-10-11T10:13:22.218Z,16.71
2018-10-11T10:15:50.133Z,16.74
2018-10-11T10:18:17.984Z,16.52
2018-10-11T10:20:45.758Z,16.84
2018-10-11T10:23:13.651Z,17.08
2018-10-11T10:25:41.539Z,17.05
2018-10-11T10:28:09.465Z,17.03
2018-10-11T10:30:43.073Z,17.12
2018-10-11T10:33:11.281Z,17.28
2018-10-11T10:35:39.119Z,17.41
2018-10-11T10:38:07.103Z,17.42
2018-10-11T10:40:34.967Z,17.58
2018-10-11T10:43:02.771Z,17.71
2018-10-11T10:45:30.591Z,17.80
2018-10-11T10:47:58.418Z,17.70
2018-10-11T10:50:26.251Z,17.72
2018-10-11T10:52:54.112Z,17.80
2018-10-11T10:55:22.181Z,17.85
2018-10-11T10:57:50.056Z,17.80
2018-10-11T11:00:18.099Z,18.00
2018-10-11T11:02:45.908Z,18.06
2018-10-11T11:05:13.745Z,18.14
2018-10-11T11:07:41.716Z,18.11
2018-10-11T11:10:09.590Z,18.13
2018-10-11T11:12:37.578Z,18.22
2018-10-11T11:15:05.484Z,18.24
2018-10-11T11:17:33.363Z,18.29
2018-10-11T11:20:01.220Z,18.30
2018-10-11T11:22:29.070Z,18.38
2018-10-11T11:24:56.915Z,18.47
2018-10-11T11:27:24.799Z,18.58
2018-10-11T11:29:52.643Z,18.61
2018-10-11T11:32:20.524Z,18.70
2018-10-11T11:34:48.372Z,18.76
2018-10-11T11:37:16.321Z,19.03
2018-10-11T11:39:44.151Z,19.21
2018-10-11T11:42:11.983Z,19.07
2018-10-11T11:44:39.818Z,19.02
2018-10-11T11:47:07.641Z,19.30
2018-10-11T11:49:35.487Z,19.58
2018-10-11T11:52:03.693Z,19.82
2018-10-11T11:54:31.484Z,19.83
2018-10-11T11:56:59.658Z,19.83
2018-10-11T11:59:27.445Z,19.92
2018-10-11T12:01:55.321Z,19.96
2018-10-11T12:04:23.156Z,20.06
2018-10-11T12:06:51.040Z,20.08
2018-10-11T12:09:18.907Z,20.08
2018-10-11T12:11:46.743Z,19.90
2018-10-11T12:14:14.611Z,19.87
2018-10-11T12:16:42.530Z,19.71
2018-10-11T12:19:10.691Z,19.76
2018-10-11T12:21:38.916Z,19.91
2018-10-11T12:24:06.780Z,19.82
2018-10-11T12:26:35.407Z,19.74
2018-10-11T12:29:03.439Z,19.69
2018-10-11T12:31:31.234Z,19.80
2018-10-11T12:33:59.115Z,19.87
2018-10-11T12:36:26.941Z,19.95
2018-10-11T12:38:55.775Z,19.82
2018-10-11T12:41:22.818Z,19.71
2018-10-11T12:43:50.628Z,19.77
2018-10-11T12:46:18.471Z,19.77
2018-10-11T12:48:46.289Z,19.67
2018-10-11T12:51:14.154Z,19.61
2018-10-11T12:53:45.095Z,19.56
2018-10-11T12:56:10.520Z,19.56
2018-10-11T12:58:38.391Z,19.55
2018-10-11T13:01:06.365Z,19.55
2018-10-11T13:03:34.098Z,19.57
2018-10-11T13:06:02.450Z,19.58
2018-10-11T13:08:30.287Z,19.55
2018-10-11T13:10:58.095Z,19.59
2018-10-11T13:13:26.150Z,19.65
2018-10-11T13:15:54.227Z,19.69
2018-10-11T13:18:21.991Z,19.62
2018-10-11T13:20:50.015Z,19.83
2018-10-11T13:23:18.708Z,20.01
2018-10-11T13:25:45.888Z,20.21
2018-10-11T13:28:19.295Z,20.29
2018-10-11T13:30:47.275Z,20.49
2018-10-11T13:33:15.074Z,20.56
2018-10-11T13:35:42.971Z,20.91
2018-10-11T13:38:10.891Z,20.88
2018-10-11T13:40:38.959Z,21.16
2018-10-11T13:43:06.767Z,21.34
2018-10-11T13:45:34.628Z,21.62
2018-10-11T13:48:02.966Z,21.75
2018-10-11T13:50:30.801Z,21.80
2018-10-11T13:52:59.061Z,21.71
2018-10-11T13:55:27.011Z,21.91
2018-10-11T13:57:54.879Z,22.04
2018-10-11T14:00:23.196Z,22.27
2018-10-11T14:02:51.007Z,22.18
2018-10-11T14:05:18.884Z,22.27
2018-10-11T14:07:46.824Z,22.31
2018-10-11T14:10:21.019Z,22.68
2018-10-11T14:12:48.857Z,22.96
2018-10-11T14:15:16.662Z,23.17
2018-10-11T14:17:44.877Z,23.08
2018-10-11T14:20:12.660Z,22.92
2018-10-11T14:22:40.472Z,22.69
2018-10-11T14:25:09.735Z,22.67
2018-10-11T14:27:37.606Z,22.66
2018-10-11T14:30:05.552Z,22.67
2018-10-11T14:32:40.979Z,22.45
2018-10-11T14:35:09.057Z,22.34
2018-10-11T14:37:36.850Z,22.41
2018-10-11T14:40:04.821Z,22.59
2018-10-11T14:42:32.656Z,22.66
2018-10-11T14:45:00.655Z,22.79
2018-10-11T14:47:28.647Z,23.00
2018-10-11T14:49:56.859Z,22.99
2018-10-11T14:52:24.750Z,22.83
2018-10-11T14:54:53.143Z,23.10
2018-10-11T14:57:21.093Z,23.20
2018-10-11T14:59:49.244Z,23.34
2018-10-11T15:02:16.754Z,23.34
2018-10-11T15:04:44.600Z,23.34
2018-10-11T15:07:12.482Z,23.24
2018-10-11T15:09:40.333Z,23.14
2018-10-11T15:12:08.220Z,23.12
2018-10-11T15:14:36.024Z,22.68
2018-10-11T15:17:03.941Z,22.69
2018-10-11T15:19:31.848Z,22.58
2018-10-11T15:21:59.680Z,22.42
2018-10-11T15:24:27.521Z,22.27
2018-10-11T15:26:55.298Z,22.16
2018-10-11T15:29:23.218Z,22.18
2018-10-11T15:31:51.084Z,22.16
2018-10-11T15:34:18.838Z,22.08
2018-10-11T15:36:46.641Z,21.83
2018-10-11T15:39:14.403Z,21.79
2018-10-11T15:41:42.259Z,21.63
2018-10-11T15:44:11.058Z,21.63
2018-10-11T15:46:38.933Z,21.51
2018-10-11T15:49:07.307Z,21.50
2018-10-11T15:51:35.310Z,21.32
2018-10-11T15:54:03.331Z,21.10
2018-10-11T15:56:31.511Z,20.87
2018-10-11T15:58:59.304Z,20.81
2018-10-11T16:01:27.657Z,20.56
2018-10-11T16:03:55.704Z,20.61
2018-10-11T16:06:23.544Z,20.50
2018-10-11T16:08:51.635Z,20.42
2018-10-11T16:11:19.579Z,20.47
2018-10-11T16:13:47.380Z,20.51
2018-10-11T16:16:15.341Z,20.51
2018-10-11T16:18:43.539Z,20.51
2018-10-11T16:21:11.335Z,20.45
2018-10-11T16:23:39.140Z,20.43
2018-10-11T16:26:06.993Z,20.31
2018-10-11T16:28:34.857Z,20.20
2018-10-11T16:31:03.090Z,20.16
2018-10-11T16:33:30.901Z,20.06
2018-10-11T16:35:59.839Z,19.99
2018-10-11T16:38:27.719Z,19.93
2018-10-11T16:40:55.655Z,19.79
2018-10-11T16:43:23.654Z,19.70
2018-10-11T16:45:51.484Z,19.53
2018-10-11T16:48:19.358Z,19.25
2018-10-11T16:50:47.169Z,19.05
2018-10-11T16:53:15.139Z,19.10
2018-10-11T16:55:43.020Z,19.13
2018-10-11T16:58:10.872Z,19.09
2018-10-11T17:00:38.695Z,19.03
2018-10-11T17:03:06.508Z,18.76
2018-10-11T17:05:34.372Z,18.35
2018-10-11T17:08:02.289Z,18.19
2018-10-11T17:10:30.079Z,18.27
2018-10-11T17:12:57.876Z,18.23
2018-10-11T17:15:27.057Z,18.23
2018-10-11T17:17:58.306Z,18.20
2018-10-11T17:20:26.060Z,18.12
2018-10-11T17:22:53.867Z,18.00
2018-10-11T17:25:21.758Z,17.90
2018-10-11T17:27:49.619Z,17.84
2018-10-11T17:30:17.489Z,17.76
2018-10-11T17:32:45.435Z,17.67
2018-10-11T17:35:13.496Z,17.59
2018-10-11T17:37:41.203Z,17.49
2018-10-11T17:40:09.560Z,17.33
2018-10-11T17:42:37.395Z,17.16
2018-10-11T17:45:06.296Z,16.90
2018-10-11T17:47:34.175Z,16.85
2018-10-11T17:50:02.382Z,16.83
2018-10-11T17:52:30.371Z,16.75
2018-10-11T17:54:58.382Z,16.54
2018-10-11T17:57:27.063Z,16.41
2018-10-11T17:59:55.593Z,16.19
2018-10-11T18:02:23.398Z,16.23
2018-10-11T18:04:52.501Z,16.28
2018-10-11T18:07:20.310Z,16.30
2018-10-11T18:09:48.934Z,16.20
2018-10-11T18:12:16.823Z,16.13
2018-10-11T18:14:44.655Z,16.09
2018-10-11T18:17:12.602Z,16.06
2018-10-11T18:19:40.514Z,15.99
2018-10-11T18:22:08.418Z,15.97
2018-10-11T18:24:36.354Z,15.93
2018-10-11T18:27:04.442Z,15.80
2018-10-11T18:29:32.500Z,15.71
2018-10-11T18:32:00.732Z,15.67
2018-10-11T18:34:28.571Z,15.44
2018-10-11T18:36:56.487Z,15.44
2018-10-11T18:39:24.340Z,15.49
2018-10-11T18:41:52.275Z,15.38
2018-10-11T18:44:20.237Z,15.36
2018-10-11T18:46:48.229Z,15.30
2018-10-11T18:49:16.109Z,15.31
2018-10-11T18:51:43.991Z,15.29
2018-10-11T18:54:12.062Z,15.33
2018-10-11T18:56:39.903Z,15.36
2018-10-11T18:59:07.769Z,15.39
2018-10-11T19:01:35.760Z,15.45
2018-10-11T19:04:03.583Z,15.45
2018-10-11T19:06:31.505Z,15.44
2018-10-11T19:08:59.529Z,15.43
2018-10-11T19:11:27.768Z,15.53
2018-10-11T19:13:55.727Z,15.51
2018-10-11T19:16:23.611Z,15.39
2018-10-11T19:18:51.414Z,15.33
2018-10-11T19:21:19.704Z,15.33
2018-10-11T19:23:47.592Z,15.32
2018-10-11T19:26:15.451Z,15.28
2018-10-11T19:28:43.450Z,15.23
2018-10-11T19:31:11.320Z,15.38
2018-10-11T19:33:39.628Z,15.30
2018-10-11T19:36:07.872Z,15.30
2018-10-11T19:38:35.778Z,15.41
2018-10-11T19:41:03.775Z,15.46
2018-10-11T19:43:31.643Z,15.49
2018-10-11T19:45:59.478Z,15.63
2018-10-11T19:48:27.462Z,15.70
2018-10-11T19:50:55.410Z,15.65
2018-10-11T19:53:23.365Z,15.62
2018-10-11T19:55:51.209Z,15.77
2018-10-11T19:58:19.027Z,15.75
2018-10-11T20:00:47.188Z,15.74
2018-10-11T20:03:15.083Z,15.80
2018-10-11T20:05:42.910Z,15.76
2018-10-11T20:08:10.926Z,15.69
2018-10-11T20:10:41.651Z,15.67
2018-10-11T20:13:09.503Z,15.64
2018-10-11T20:15:37.376Z,15.68
2018-10-11T20:18:05.436Z,15.65
2018-10-11T20:20:33.300Z,15.60
2018-10-11T20:23:01.248Z,15.48
2018-10-11T20:25:29.743Z,15.46
2018-10-11T20:27:57.619Z,15.47
2018-10-11T20:30:25.372Z,15.33
2018-10-11T20:32:53.319Z,15.23
2018-10-11T20:35:22.118Z,15.17
2018-10-11T20:37:50.002Z,15.10
2018-10-11T20:40:17.853Z,15.01
2018-10-11T20:42:45.656Z,14.95
2018-10-11T20:45:13.555Z,14.88
2018-10-11T20:47:41.347Z,14.90
2018-10-11T20:50:09.305Z,14.94
2018-10-11T20:52:37.127Z,14.83
2018-10-11T20:55:05.244Z,14.71
2018-10-11T20:57:33.123Z,14.65
2018-10-11T21:00:01.215Z,14.71
2018-10-11T21:02:29.065Z,14.67
2018-10-11T21:04:56.904Z,14.65
2018-10-11T21:07:28.575Z,14.73
2018-10-11T21:09:56.447Z,14.72
2018-10-11T21:12:24.298Z,14.72
2018-10-11T21:14:52.156Z,14.70
2018-10-11T21:17:20.153Z,14.67
2018-10-11T21:19:47.996Z,14.62
2018-10-11T21:22:15.827Z,14.61
2018-10-11T21:24:43.700Z,14.62
2018-10-11T21:27:11.511Z,14.66
2018-10-11T21:29:55.195Z,14.74
2018-10-11T21:32:24.863Z,14.70
2018-10-11T21:34:52.827Z,14.70
2018-10-11T21:37:21.024Z,14.81
2018-10-11T21:39:48.866Z,14.93
2018-10-11T21:42:16.697Z,14.93
2018-10-11T21:44:44.620Z,14.93
2018-10-11T21:47:12.456Z,14.90
2018-10-11T21:49:40.262Z,14.96
2018-10-11T21:52:09.035Z,15.01
2018-10-11T21:54:36.883Z,15.00
2018-10-11T21:57:04.704Z,14.97
2018-10-11T21:59:32.553Z,15.05
2018-10-11T22:02:00.362Z,15.14
2018-10-11T22:04:28.181Z,15.15
2018-10-11T22:06:56.016Z,15.36
2018-10-11T22:09:23.862Z,15.26
2018-10-11T22:11:51.713Z,15.25
2018-10-11T22:14:19.589Z,15.35
2018-10-11T22:16:47.399Z,15.28
2018-10-11T22:19:19.063Z,15.27
2018-10-11T22:21:47.003Z,15.27
2018-10-11T22:24:14.920Z,15.22
2018-10-11T22:26:42.779Z,15.27
2018-10-11T22:29:10.609Z,15.19
2018-10-11T22:31:38.413Z,15.24
2018-10-11T22:34:06.303Z,15.12
2018-10-11T22:36:34.490Z,15.04
2018-10-11T22:39:02.444Z,15.03
2018-10-11T22:41:30.333Z,14.98
2018-10-11T22:43:58.303Z,15.02
2018-10-11T22:46:26.200Z,15.08
2018-10-11T22:48:54.035Z,15.06
2018-10-11T22:51:22.144Z,15.01
2018-10-11T22:53:50.106Z,14.99
2018-10-11T22:56:20.198Z,14.93
2018-10-11T22:58:49.072Z,15.00
2018-10-11T23:01:16.879Z,15.00
2018-10-11T23:03:44.755Z,15.01
2018-10-11T23:06:12.544Z,14.86
2018-10-11T23:08:40.392Z,14.94
2018-10-11T23:11:08.635Z,14.97
2018-10-11T23:13:36.477Z,14.85
2018-10-11T23:16:04.360Z,14.81
2018-10-11T23:18:32.230Z,14.80
2018-10-11T23:21:00.053Z,14.84
2018-10-11T23:23:28.245Z,14.86
2018-10-11T23:25:56.093Z,14.77
2018-10-11T23:28:23.924Z,14.59
2018-10-11T23:30:51.855Z,14.64
2018-10-11T23:33:19.747Z,14.61
2018-10-11T23:35:47.559Z,14.53
2018-10-11T23:38:15.363Z,14.40
2018-10-11T23:40:43.172Z,14.38
2018-10-11T23:43:11.037Z,14.39
2018-10-11T23:45:42.378Z,14.36
2018-10-11T23:48:10.216Z,14.28
2018-10-11T23:50:38.560Z,14.19
2018-10-11T23:53:06.516Z,14.30
2018-10-11T23:55:34.359Z,14.25
2018-10-11T23:58:02.814Z,14.34
